createdAt,value
2018-05-24T00:00:13.376Z,6.93
2018-05-24T00:03:15.812Z,5.20
2018-05-24T00:06:18.367Z,3.40
2018-05-24T00:09:20.831Z,4.50
2018-05-24T00:12:23.315Z,3.97
2018-05-24T00:15:25.754Z,4.60
2018-05-24T00:18:28.173Z,5.23
2018-05-24T00:21:30.743Z,5.87
2018-05-24T00:24:33.209Z,3.97
2018-05-24T00:27:35.676Z,3.60
2018-05-24T00:30:38.232Z,6.90
2018-05-24T00:33:40.781Z,9.63
2018-05-24T00:36:43.225Z,6.30
2018-05-24T00:39:45.708Z,3.23
2018-05-24T00:42:48.179Z,2.93
2018-05-24T00:45:50.788Z,3.73
2018-05-24T00:48:53.304Z,5.20
2018-05-24T00:51:55.721Z,5.13
2018-05-24T00:55:10.061Z,3.10
2018-05-24T00:58:12.572Z,3.73
2018-05-24T01:01:15.165Z,4.70
2018-05-24T01:04:17.626Z,6.13
2018-05-24T01:07:20.108Z,4.37
2018-05-24T01:10:22.617Z,7.50
2018-05-24T01:13:25.097Z,6.40
2018-05-24T01:16:27.562Z,8.70
2018-05-24T01:19:30.133Z,4.93
2018-05-24T01:22:32.591Z,6.43
2018-05-24T01:25:35.050Z,5.73
2018-05-24T01:28:37.532Z,3.80
2018-05-24T01:31:39.963Z,4.90
2018-05-24T01:34:42.433Z,7.97
2018-05-24T01:37:50.656Z,5.70
2018-05-24T01:40:53.123Z,10.20
2018-05-24T01:43:55.648Z,4.87
2018-05-24T01:46:58.082Z,3.80
2018-05-24T01:50:00.640Z,6.50
2018-05-24T01:53:03.167Z,5.50
2018-05-24T01:56:05.699Z,5.20
2018-05-24T01:59:08.132Z,5.57
2018-05-24T02:02:10.717Z,5.53
2018-05-24T02:05:13.172Z,4.40
2018-05-24T02:08:15.758Z,4.70
2018-05-24T02:11:18.202Z,4.90
2018-05-24T02:14:20.741Z,5.87
2018-05-24T02:17:23.286Z,5.20
2018-05-24T02:20:25.701Z,5.50
2018-05-24T02:23:28.769Z,6.53
2018-05-24T02:26:31.313Z,5.23
2018-05-24T02:29:33.821Z,9.53
2018-05-24T02:32:36.343Z,6.90
2018-05-24T02:35:38.871Z,8.30
2018-05-24T02:38:41.344Z,6.27
2018-05-24T02:41:43.829Z,4.83
2018-05-24T02:44:46.293Z,4.93
2018-05-24T02:47:48.752Z,7.23
2018-05-24T02:50:51.312Z,9.03
2018-05-24T02:53:53.883Z,5.07
2018-05-24T02:56:56.325Z,4.27
2018-05-24T02:59:58.903Z,4.60
2018-05-24T03:03:01.349Z,6.20
2018-05-24T03:06:03.847Z,5.03
2018-05-24T03:09:06.313Z,4.57
2018-05-24T03:12:08.874Z,4.30
2018-05-24T03:15:11.441Z,4.97
2018-05-24T03:18:13.898Z,5.70
2018-05-24T03:21:16.359Z,4.60
2018-05-24T03:24:18.845Z,6.90
2018-05-24T03:27:21.419Z,4.60
2018-05-24T03:30:23.924Z,4.50
2018-05-24T03:33:26.360Z,6.63
2018-05-24T03:36:28.855Z,4.90
2018-05-24T03:39:31.328Z,6.23
2018-05-24T03:42:33.853Z,9.13
2018-05-24T03:45:36.324Z,6.50
2018-05-24T03:48:38.990Z,5.30
2018-05-24T03:51:41.449Z,5.07
2018-05-24T03:54:43.948Z,6.83
2018-05-24T03:57:46.600Z,4.70
2018-05-24T04:01:00.900Z,5.00
2018-05-24T04:04:15.135Z,4.50
2018-05-24T04:07:17.587Z,5.00
2018-05-24T04:10:20.109Z,5.93
2018-05-24T04:13:22.575Z,6.53
2018-05-24T04:16:25.040Z,5.43
2018-05-24T04:19:27.513Z,4.57
2018-05-24T04:22:30.100Z,4.40
2018-05-24T04:25:32.644Z,4.50
2018-05-24T04:28:36.091Z,5.93
2018-05-24T04:31:38.561Z,5.83
2018-05-24T04:34:41.046Z,5.90
2018-05-24T04:37:43.624Z,5.50
2018-05-24T04:40:46.064Z,5.13
2018-05-24T04:43:48.575Z,6.20
2018-05-24T04:46:57.899Z,6.20
2018-05-24T04:50:00.323Z,7.87
2018-05-24T04:53:02.825Z,10.00
2018-05-24T04:56:05.311Z,7.93
2018-05-24T04:59:07.781Z,5.77
2018-05-24T05:02:10.225Z,5.40
2018-05-24T05:05:12.756Z,6.67
2018-05-24T05:08:15.219Z,5.80
2018-05-24T05:11:17.688Z,8.00
2018-05-24T05:14:20.245Z,5.93
2018-05-24T05:17:22.748Z,7.97
2018-05-24T05:20:25.264Z,5.30
2018-05-24T05:23:27.803Z,6.10
2018-05-24T05:26:30.185Z,6.57
2018-05-24T05:29:32.658Z,7.23
2018-05-24T05:32:35.096Z,5.50
2018-05-24T05:35:37.558Z,7.10
2018-05-24T05:38:40.024Z,7.13
2018-05-24T05:41:42.477Z,5.30
2018-05-24T05:44:45.037Z,10.50
2018-05-24T05:47:47.464Z,6.70
2018-05-24T05:50:49.907Z,6.40
2018-05-24T05:53:52.387Z,10.20
2018-05-24T05:56:54.872Z,5.37
2018-05-24T05:59:57.438Z,7.13
2018-05-24T06:02:59.990Z,7.87
2018-05-24T06:06:02.516Z,7.90
2018-05-24T06:09:05.120Z,7.53
2018-05-24T06:12:07.687Z,6.30
2018-05-24T06:15:10.171Z,7.00
2018-05-24T06:18:12.702Z,5.93
2018-05-24T06:21:15.177Z,11.80
2018-05-24T06:24:17.641Z,10.10
2018-05-24T06:27:20.124Z,7.17
2018-05-24T06:30:22.691Z,7.33
2018-05-24T06:33:25.146Z,12.43
2018-05-24T06:36:27.690Z,8.33
2018-05-24T06:39:30.121Z,11.40
2018-05-24T06:42:32.597Z,6.93
2018-05-24T06:45:35.047Z,8.40
2018-05-24T06:48:37.535Z,7.13
2018-05-24T06:51:40.025Z,7.70
2018-05-24T06:54:42.491Z,6.03
2018-05-24T06:57:44.981Z,9.20
2018-05-24T07:00:47.485Z,6.83
2018-05-24T07:03:49.925Z,11.80
2018-05-24T07:06:52.411Z,8.80
2018-05-24T07:09:54.857Z,10.80
2018-05-24T07:12:57.315Z,10.00
2018-05-24T07:15:59.791Z,10.20
2018-05-24T07:19:02.330Z,12.20
2018-05-24T07:22:04.897Z,9.43
2018-05-24T07:25:07.328Z,9.63
2018-05-24T07:28:09.815Z,10.77
2018-05-24T07:31:12.312Z,9.33
2018-05-24T07:34:14.767Z,11.33
2018-05-24T07:37:17.275Z,13.87
2018-05-24T07:40:19.752Z,12.07
2018-05-24T07:43:22.234Z,13.33
2018-05-24T07:46:24.726Z,8.70
2018-05-24T07:49:27.241Z,12.63
2018-05-24T07:52:29.776Z,11.37
2018-05-24T07:55:32.392Z,10.60
2018-05-24T07:58:34.924Z,9.57
2018-05-24T08:01:37.422Z,11.93
2018-05-24T08:04:40.671Z,10.87
2018-05-24T08:07:43.177Z,12.33
2018-05-24T08:10:45.621Z,11.10
2018-05-24T08:13:48.100Z,13.77
2018-05-24T08:16:50.689Z,9.20
2018-05-24T08:19:53.156Z,14.93
2018-05-24T08:22:55.646Z,10.10
2018-05-24T08:25:58.092Z,14.77
2018-05-24T08:29:00.596Z,11.23
2018-05-24T08:32:03.047Z,10.43
2018-05-24T08:35:05.553Z,10.23
2018-05-24T08:38:08.026Z,19.90
2018-05-24T08:41:10.457Z,12.03
2018-05-24T08:44:12.963Z,11.10
2018-05-24T08:47:15.515Z,12.23
2018-05-24T08:50:17.984Z,13.90
2018-05-24T08:53:20.626Z,14.87
2018-05-24T08:56:23.102Z,16.77
2018-05-24T08:59:25.669Z,11.10
2018-05-24T09:02:28.113Z,10.73
2018-05-24T09:05:30.592Z,14.30
2018-05-24T09:08:33.092Z,10.17
2018-05-24T09:11:35.567Z,17.33
2018-05-24T09:14:38.044Z,11.90
2018-05-24T09:17:40.669Z,11.20
2018-05-24T09:20:43.153Z,15.43
2018-05-24T09:23:45.668Z,11.47
2018-05-24T09:26:48.148Z,9.90
2018-05-24T09:29:50.629Z,12.33
2018-05-24T09:32:53.159Z,12.10
2018-05-24T09:35:55.624Z,10.80
2018-05-24T09:38:58.103Z,16.00
2018-05-24T09:42:00.697Z,19.97
2018-05-24T09:45:03.193Z,11.03
2018-05-24T09:48:05.694Z,10.30
2018-05-24T09:51:08.211Z,10.23
2018-05-24T09:54:10.718Z,13.70
2018-05-24T09:57:13.205Z,14.23
2018-05-24T10:00:15.809Z,9.40
2018-05-24T10:03:18.374Z,14.47
2018-05-24T10:06:20.849Z,11.83
2018-05-24T10:09:23.343Z,7.97
2018-05-24T10:12:25.804Z,8.20
2018-05-24T10:15:28.327Z,11.83
2018-05-24T10:18:30.774Z,12.60
2018-05-24T10:21:33.241Z,8.20
2018-05-24T10:24:35.894Z,14.70
2018-05-24T10:27:38.402Z,11.63
2018-05-24T10:30:40.958Z,10.67
2018-05-24T10:33:43.434Z,6.63
2018-05-24T10:36:45.901Z,8.90
2018-05-24T10:39:48.369Z,8.40
2018-05-24T10:42:50.904Z,10.87
2018-05-24T10:45:53.521Z,10.43
2018-05-24T10:48:56.031Z,9.60
2018-05-24T10:51:58.533Z,14.20
2018-05-24T10:55:01.015Z,11.87
2018-05-24T10:58:03.669Z,13.50
2018-05-24T11:01:06.093Z,8.53
2018-05-24T11:04:08.635Z,9.80
2018-05-24T11:07:11.267Z,6.40
2018-05-24T11:10:13.753Z,7.07
2018-05-24T11:13:16.285Z,7.37
2018-05-24T11:16:18.785Z,7.70
2018-05-24T11:19:22.550Z,9.63
2018-05-24T11:22:25.103Z,18.30
2018-05-24T11:25:27.575Z,12.53
2018-05-24T11:28:30.093Z,8.27
2018-05-24T11:31:32.599Z,13.77
2018-05-24T11:34:35.053Z,9.90
2018-05-24T11:37:37.700Z,8.30
2018-05-24T11:40:40.190Z,9.70
2018-05-24T11:43:42.734Z,11.10
2018-05-24T11:46:45.400Z,11.23
2018-05-24T11:49:47.963Z,14.37
2018-05-24T11:52:50.445Z,13.43
2018-05-24T11:55:52.889Z,9.43
2018-05-24T11:58:55.389Z,11.20
2018-05-24T12:01:57.850Z,9.80
2018-05-24T12:05:00.478Z,11.93
2018-05-24T12:08:03.049Z,12.77
2018-05-24T12:11:05.583Z,11.27
2018-05-24T12:14:08.058Z,10.10
2018-05-24T12:17:10.573Z,11.47
2018-05-24T12:20:13.183Z,12.10
2018-05-24T12:23:15.688Z,9.67
2018-05-24T12:26:18.420Z,10.97
2018-05-24T12:29:20.923Z,13.03
2018-05-24T12:32:23.404Z,13.93
2018-05-24T12:35:25.946Z,9.00
2018-05-24T12:38:28.381Z,10.07
2018-05-24T12:41:30.811Z,9.97
2018-05-24T12:44:33.336Z,13.07
2018-05-24T12:47:35.855Z,10.73
2018-05-24T12:50:38.401Z,10.10
2018-05-24T12:53:40.896Z,11.17
2018-05-24T12:56:43.421Z,12.50
2018-05-24T12:59:45.927Z,13.23
2018-05-24T13:02:48.374Z,12.20
2018-05-24T13:05:50.949Z,9.80
2018-05-24T13:08:53.573Z,12.13
2018-05-24T13:11:56.074Z,12.47
2018-05-24T13:14:58.603Z,18.27
2018-05-24T13:18:01.045Z,13.03
2018-05-24T13:21:03.538Z,15.07
2018-05-24T13:24:06.300Z,14.80
2018-05-24T13:27:08.810Z,12.03
2018-05-24T13:30:11.305Z,15.47
2018-05-24T13:33:13.792Z,15.60
2018-05-24T13:36:16.276Z,11.20
2018-05-24T13:39:18.708Z,13.57
2018-05-24T13:42:21.162Z,15.33
2018-05-24T13:45:23.679Z,18.63
2018-05-24T13:48:26.093Z,14.80
2018-05-24T13:51:28.644Z,14.47
2018-05-24T13:54:31.228Z,12.10
2018-05-24T13:57:44.475Z,13.13
2018-05-24T14:00:46.975Z,15.37
2018-05-24T14:03:49.425Z,23.17
2018-05-24T14:06:51.968Z,16.27
2018-05-24T14:09:54.441Z,17.83
2018-05-24T14:12:57.017Z,14.67
2018-05-24T14:15:59.595Z,18.33
2018-05-24T14:19:02.090Z,20.47
2018-05-24T14:22:04.607Z,16.47
2018-05-24T14:25:07.132Z,23.03
2018-05-24T14:28:09.612Z,19.80
2018-05-24T14:31:12.132Z,19.07
2018-05-24T14:34:14.675Z,16.90
2018-05-24T14:37:17.309Z,20.77
2018-05-24T14:40:19.787Z,18.10
2018-05-24T14:43:22.335Z,21.30
2018-05-24T14:46:24.812Z,17.23
2018-05-24T14:49:27.464Z,18.20
2018-05-24T14:52:30.021Z,18.10
2018-05-24T14:55:32.567Z,19.23
2018-05-24T14:58:35.049Z,14.53
2018-05-24T15:01:37.578Z,16.80
2018-05-24T15:04:40.115Z,17.17
2018-05-24T15:07:42.560Z,19.03
2018-05-24T15:10:45.068Z,15.00
2018-05-24T15:13:52.365Z,17.77
2018-05-24T15:16:54.824Z,14.60
2018-05-24T15:19:57.386Z,15.63
2018-05-24T15:22:59.866Z,15.00
2018-05-24T15:26:02.403Z,13.63
2018-05-24T15:29:04.889Z,19.17
2018-05-24T15:32:07.375Z,15.03
2018-05-24T15:35:09.942Z,16.00
2018-05-24T15:38:12.535Z,13.73
2018-05-24T15:41:16.256Z,21.07
2018-05-24T15:44:18.773Z,15.27
2018-05-24T15:47:21.366Z,13.70
2018-05-24T15:50:23.901Z,17.97
2018-05-24T15:53:26.523Z,16.90
2018-05-24T15:56:28.988Z,16.10
2018-05-24T15:59:31.473Z,15.47
2018-05-24T16:02:33.959Z,13.70
2018-05-24T16:05:36.541Z,14.63
2018-05-24T16:08:39.063Z,14.30
2018-05-24T16:11:41.531Z,16.00
2018-05-24T16:14:44.059Z,18.70
2018-05-24T16:17:46.565Z,16.23
2018-05-24T16:20:49.065Z,14.03
2018-05-24T16:23:51.553Z,14.37
2018-05-24T16:26:54.070Z,17.93
2018-05-24T16:29:56.552Z,14.23
2018-05-24T16:32:59.068Z,14.17
2018-05-24T16:36:01.658Z,16.13
2018-05-24T16:39:04.156Z,13.27
2018-05-24T16:42:06.744Z,14.47
2018-05-24T16:45:09.201Z,14.27
2018-05-24T16:48:11.707Z,16.37
2018-05-24T16:51:14.294Z,15.13
2018-05-24T16:54:16.892Z,16.60
2018-05-24T16:57:19.353Z,17.93
2018-05-24T17:00:21.932Z,16.60
2018-05-24T17:03:24.458Z,17.33
2018-05-24T17:06:27.028Z,23.80
2018-05-24T17:09:29.437Z,18.03
2018-05-24T17:12:32.011Z,16.23
2018-05-24T17:15:34.574Z,15.87
2018-05-24T17:18:37.044Z,17.67
2018-05-24T17:21:39.555Z,18.53
2018-05-24T17:24:42.059Z,16.60
2018-05-24T17:27:44.620Z,21.90
2018-05-24T17:30:47.133Z,21.43
2018-05-24T17:33:49.571Z,18.23
2018-05-24T17:36:52.088Z,21.33
2018-05-24T17:39:54.653Z,19.67
2018-05-24T17:42:57.231Z,19.13
2018-05-24T17:45:59.719Z,20.53
2018-05-24T17:49:02.211Z,18.00
2018-05-24T17:52:04.721Z,23.23
2018-05-24T17:55:07.189Z,19.00
2018-05-24T17:58:09.791Z,21.30
2018-05-24T18:01:12.362Z,16.13
2018-05-24T18:04:14.958Z,18.20
2018-05-24T18:07:17.527Z,17.93
2018-05-24T18:10:19.970Z,23.27
2018-05-24T18:13:22.504Z,18.87
2018-05-24T18:16:24.963Z,17.50
2018-05-24T18:19:27.569Z,16.80
2018-05-24T18:22:30.064Z,23.10
2018-05-24T18:25:32.598Z,22.70
2018-05-24T18:28:35.090Z,15.90
2018-05-24T18:31:37.589Z,18.70
2018-05-24T18:34:40.179Z,19.67
2018-05-24T18:37:42.724Z,20.07
2018-05-24T18:40:45.234Z,19.67
2018-05-24T18:43:47.877Z,20.00
2018-05-24T18:46:50.362Z,22.60
2018-05-24T18:49:52.840Z,18.93
2018-05-24T18:52:55.347Z,18.93
2018-05-24T18:55:57.912Z,19.87
2018-05-24T18:59:00.484Z,19.67
2018-05-24T19:02:03.139Z,17.80
2018-05-24T19:05:05.609Z,20.60
2018-05-24T19:08:08.141Z,24.17
2018-05-24T19:11:10.584Z,21.87
2018-05-24T19:14:13.086Z,19.03
2018-05-24T19:17:15.645Z,19.27
2018-05-24T19:20:18.119Z,19.90
2018-05-24T19:23:20.599Z,18.50
2018-05-24T19:26:23.152Z,16.93
2018-05-24T19:29:25.747Z,21.20
2018-05-24T19:32:28.208Z,15.60
2018-05-24T19:35:30.705Z,16.90
2018-05-24T19:38:33.404Z,17.83
2018-05-24T19:41:36.033Z,12.63
2018-05-24T19:44:38.523Z,19.83
2018-05-24T19:47:41.054Z,13.47
2018-05-24T19:50:43.611Z,14.00
2018-05-24T19:53:46.148Z,13.50
2018-05-24T19:56:48.661Z,11.80
2018-05-24T19:59:51.150Z,16.63
2018-05-24T20:02:53.699Z,15.87
2018-05-24T20:05:56.168Z,17.03
2018-05-24T20:08:58.625Z,25.07
2018-05-24T20:12:01.140Z,21.60
2018-05-24T20:15:03.599Z,21.70
2018-05-24T20:18:06.246Z,18.40
2018-05-24T20:21:08.756Z,18.80
2018-05-24T20:24:11.344Z,25.80
2018-05-24T20:27:13.864Z,15.60
2018-05-24T20:30:16.340Z,13.60
2018-05-24T20:33:18.868Z,13.10
2018-05-24T20:36:21.401Z,14.27
2018-05-24T20:39:23.996Z,20.20
2018-05-24T20:42:26.568Z,14.70
2018-05-24T20:45:29.113Z,11.23
2018-05-24T20:48:31.749Z,18.33
2018-05-24T20:51:34.367Z,10.67
2018-05-24T20:54:36.944Z,12.70
2018-05-24T20:57:39.421Z,13.57
2018-05-24T21:00:41.969Z,14.37
2018-05-24T21:03:44.509Z,14.47
2018-05-24T21:06:47.008Z,15.80
2018-05-24T21:09:49.498Z,15.80
2018-05-24T21:12:51.948Z,14.33
2018-05-24T21:15:54.462Z,14.40
2018-05-24T21:18:56.964Z,17.23
2018-05-24T21:21:59.460Z,13.43
2018-05-24T21:25:02.012Z,13.57
2018-05-24T21:28:04.479Z,11.10
2018-05-24T21:31:07.024Z,11.50
2018-05-24T21:34:09.544Z,13.97
2018-05-24T21:37:12.030Z,16.33
2018-05-24T21:40:14.516Z,15.10
2018-05-24T21:43:17.035Z,15.10
2018-05-24T21:46:19.539Z,16.83
2018-05-24T21:49:22.019Z,13.00
2018-05-24T21:52:24.491Z,12.83
2018-05-24T21:55:27.019Z,14.80
2018-05-24T21:58:29.474Z,15.80
2018-05-24T22:01:31.998Z,14.43
2018-05-24T22:04:34.520Z,15.60
2018-05-24T22:07:37.011Z,13.67
2018-05-24T22:10:39.551Z,12.70
2018-05-24T22:13:42.059Z,14.10
2018-05-24T22:16:44.508Z,16.63
2018-05-24T22:19:46.989Z,14.30
2018-05-24T22:22:49.480Z,15.07
2018-05-24T22:25:51.995Z,13.10
2018-05-24T22:28:54.578Z,13.37
2018-05-24T22:31:57.109Z,15.03
2018-05-24T22:34:59.609Z,14.70
2018-05-24T22:38:02.165Z,15.80
2018-05-24T22:41:04.641Z,17.03
2018-05-24T22:44:07.194Z,17.93
2018-05-24T22:47:09.692Z,18.03
2018-05-24T22:50:12.181Z,14.67
2018-05-24T22:53:14.640Z,17.53
2018-05-24T22:56:17.209Z,16.50
2018-05-24T22:59:19.662Z,16.90
2018-05-24T23:02:22.134Z,15.40
2018-05-24T23:05:24.592Z,16.67
2018-05-24T23:08:27.230Z,15.20
2018-05-24T23:11:29.655Z,16.87
2018-05-24T23:14:32.193Z,15.83
2018-05-24T23:17:34.661Z,21.63
2018-05-24T23:20:37.136Z,20.70
2018-05-24T23:23:39.604Z,19.10
2018-05-24T23:26:42.111Z,21.33
2018-05-24T23:29:44.575Z,19.37
2018-05-24T23:32:47.083Z,21.90
2018-05-24T23:35:49.637Z,19.83
2018-05-24T23:38:52.088Z,25.87
2018-05-24T23:41:54.671Z,25.13
2018-05-24T23:44:57.133Z,23.23
2018-05-24T23:47:59.701Z,18.60
2018-05-24T23:51:02.188Z,21.47
2018-05-24T23:54:04.671Z,21.07
2018-05-24T23:57:07.152Z,23.50
